LGKV

Alexander the Great International Airport

Kavala, Greece
TAF LGKV 260500Z 2606/2615 VRB05KT 9999 FEW020 BECMG 2606/2608 22010KT PROB30 TEMPO 2610/2612 5000 SHRA FEW018CB BKN070
Issued Valid From Valid To
Apr-26 @ 05:00 UTC
(53 minutes ago)
Apr-26 @ 06:00 UTC
(in 7 minutes)
Apr-26 @ 15:00 UTC
(in 9 hours)
Apr-26 @ 06:00 to Apr-26 @ 15:00
TAF LGKV 260500Z 2606/2615 VRB05KT 9999 FEW020
Wind Visibility Clouds
Variable at 5 knots 10,000+ meters
  • Few at 2,000' AGL
Becoming Apr-26 @ 06:00 to Apr-26 @ 15:00
BECMG 2606/2608 22010KT
Wind Visibility Clouds
220° at 10 knots 10,000+ meters
  • Few at 2,000' AGL
Temporary  (Probability 30%) Apr-26 @ 10:00 to Apr-26 @ 12:00
PROB30 TEMPO 2610/2612 5000 SHRA FEW018CB BKN070
Visibility Clouds Conditions
5,005 meters
  • Few at 1,800' AGL
  • Broken at 7,000' AGL
  • Rain
TAF LGKV 260500Z 2606/2615 VRB05KT 9999 FEW020 BECMG 2606/2608 22010KT PROB30 TEMPO 2610/2612 5000 SHRA FEW018CB BKN070
Issued Apr-26 @ 05:00 UTC
(53 minutes ago)
Valid From Apr-26 @ 06:00 UTC
(in 7 minutes)
Valid To Apr-26 @ 15:00 UTC
(in 9 hours)
Apr-26 @ 06:00 - Apr-26 @ 15:00
Wind Visibility
Variable at 5 knots 10,000+ meters
Clouds
  • Few at 2,000' AGL
Becoming Apr-26 @ 06:00 - Apr-26 @ 15:00
Wind Visibility
220° at 10 knots 10,000+ meters
Clouds
  • Few at 2,000' AGL
Probability 30% Temporary Apr-26 @ 10:00 - Apr-26 @ 12:00
Clouds
  • Few at 1,800' AGL
  • Broken at 7,000' AGL
Conditions
  • Rain